sensor_id;sensor_type;location;lat;lon;timestamp;P1;durP1;ratioP1;P2;durP2;ratioP2
24261;SDS011;12385;51.412;5.540;2023-03-22T00:00:48;11.23;;;3.88;;
24261;SDS011;12385;51.412;5.540;2023-03-22T00:03:14;11.43;;;4.25;;
24261;SDS011;12385;51.412;5.540;2023-03-22T00:05:40;10.77;;;4.95;;
24261;SDS011;12385;51.412;5.540;2023-03-22T00:08:06;14.13;;;5.07;;
24261;SDS011;12385;51.412;5.540;2023-03-22T00:10:32;14.77;;;5.18;;
24261;SDS011;12385;51.412;5.540;2023-03-22T00:13:00;11.80;;;5.22;;
24261;SDS011;12385;51.412;5.540;2023-03-22T00:15:26;15.25;;;5.53;;
24261;SDS011;12385;51.412;5.540;2023-03-22T00:17:53;13.38;;;5.47;;
24261;SDS011;12385;51.412;5.540;2023-03-22T00:20:20;14.32;;;6.00;;
24261;SDS011;12385;51.412;5.540;2023-03-22T00:22:47;14.50;;;6.10;;
24261;SDS011;12385;51.412;5.540;2023-03-22T00:25:13;21.38;;;6.72;;
24261;SDS011;12385;51.412;5.540;2023-03-22T00:27:40;14.55;;;6.65;;
24261;SDS011;12385;51.412;5.540;2023-03-22T00:30:06;14.63;;;6.63;;
24261;SDS011;12385;51.412;5.540;2023-03-22T00:32:33;17.00;;;7.20;;
24261;SDS011;12385;51.412;5.540;2023-03-22T00:35:00;15.80;;;6.65;;
24261;SDS011;12385;51.412;5.540;2023-03-22T00:37:26;13.32;;;6.85;;
24261;SDS011;12385;51.412;5.540;2023-03-22T00:39:58;14.65;;;7.32;;
24261;SDS011;12385;51.412;5.540;2023-03-22T00:42:24;18.05;;;6.95;;
24261;SDS011;12385;51.412;5.540;2023-03-22T00:44:50;16.50;;;7.15;;
24261;SDS011;12385;51.412;5.540;2023-03-22T00:47:16;17.65;;;7.75;;
24261;SDS011;12385;51.412;5.540;2023-03-22T00:49:42;15.55;;;7.38;;
24261;SDS011;12385;51.412;5.540;2023-03-22T00:52:08;17.13;;;7.63;;
24261;SDS011;12385;51.412;5.540;2023-03-22T00:54:34;17.95;;;8.23;;
24261;SDS011;12385;51.412;5.540;2023-03-22T00:56:59;14.75;;;8.55;;
24261;SDS011;12385;51.412;5.540;2023-03-22T00:59:25;16.00;;;8.45;;
24261;SDS011;12385;51.412;5.540;2023-03-22T01:01:52;20.45;;;9.60;;
24261;SDS011;12385;51.412;5.540;2023-03-22T01:04:18;17.95;;;9.45;;
24261;SDS011;12385;51.412;5.540;2023-03-22T01:06:50;19.05;;;9.90;;
24261;SDS011;12385;51.412;5.540;2023-03-22T01:09:23;18.90;;;10.57;;
24261;SDS011;12385;51.412;5.540;2023-03-22T01:11:52;20.33;;;10.77;;
24261;SDS011;12385;51.412;5.540;2023-03-22T01:14:18;17.08;;;10.95;;
24261;SDS011;12385;51.412;5.540;2023-03-22T01:16:44;22.10;;;11.20;;
24261;SDS011;12385;51.412;5.540;2023-03-22T01:19:09;16.75;;;11.00;;
24261;SDS011;12385;51.412;5.540;2023-03-22T01:21:35;19.23;;;11.63;;
24261;SDS011;12385;51.412;5.540;2023-03-22T01:24:00;19.55;;;12.15;;
24261;SDS011;12385;51.412;5.540;2023-03-22T01:26:26;27.65;;;12.45;;
24261;SDS011;12385;51.412;5.540;2023-03-22T01:28:53;18.48;;;11.75;;
24261;SDS011;12385;51.412;5.540;2023-03-22T01:31:18;20.83;;;11.60;;
24261;SDS011;12385;51.412;5.540;2023-03-22T01:33:44;21.42;;;12.13;;
24261;SDS011;12385;51.412;5.540;2023-03-22T01:36:11;22.95;;;13.10;;
24261;SDS011;12385;51.412;5.540;2023-03-22T01:38:37;21.75;;;12.27;;
24261;SDS011;12385;51.412;5.540;2023-03-22T01:41:03;22.48;;;11.95;;
24261;SDS011;12385;51.412;5.540;2023-03-22T01:43:28;22.92;;;12.38;;
24261;SDS011;12385;51.412;5.540;2023-03-22T01:45:54;17.60;;;11.93;;
24261;SDS011;12385;51.412;5.540;2023-03-22T01:50:57;19.00;;;11.82;;
24261;SDS011;12385;51.412;5.540;2023-03-22T01:53:35;19.42;;;11.85;;
24261;SDS011;12385;51.412;5.540;2023-03-22T01:56:05;20.60;;;11.82;;
24261;SDS011;12385;51.412;5.540;2023-03-22T01:58:32;18.23;;;11.45;;
24261;SDS011;12385;51.412;5.540;2023-03-22T02:01:00;21.63;;;11.65;;
24261;SDS011;12385;51.412;5.540;2023-03-22T02:03:37;17.63;;;10.60;;
24261;SDS011;12385;51.412;5.540;2023-03-22T02:06:05;19.17;;;11.18;;
24261;SDS011;12385;51.412;5.540;2023-03-22T02:08:31;17.52;;;10.43;;
24261;SDS011;12385;51.412;5.540;2023-03-22T02:10:58;16.08;;;10.23;;
24261;SDS011;12385;51.412;5.540;2023-03-22T02:33:29;12.20;;;8.30;;
24261;SDS011;12385;51.412;5.540;2023-03-22T02:39:11;14.00;;;7.75;;
24261;SDS011;12385;51.412;5.540;2023-03-22T02:45:00;11.82;;;6.97;;
24261;SDS011;12385;51.412;5.540;2023-03-22T02:48:12;11.27;;;7.25;;
24261;SDS011;12385;51.412;5.540;2023-03-22T02:50:48;13.90;;;7.30;;
24261;SDS011;12385;51.412;5.540;2023-03-22T02:53:53;13.13;;;6.47;;
24261;SDS011;12385;51.412;5.540;2023-03-22T02:56:30;11.05;;;6.47;;
24261;SDS011;12385;51.412;5.540;2023-03-22T02:59:04;13.15;;;7.05;;
24261;SDS011;12385;51.412;5.540;2023-03-22T03:01:34;14.50;;;6.78;;
24261;SDS011;12385;51.412;5.540;2023-03-22T03:04:12;12.30;;;6.32;;
24261;SDS011;12385;51.412;5.540;2023-03-22T03:06:42;11.63;;;6.32;;
24261;SDS011;12385;51.412;5.540;2023-03-22T03:09:13;12.23;;;7.07;;
24261;SDS011;12385;51.412;5.540;2023-03-22T03:11:43;11.43;;;6.18;;
24261;SDS011;12385;51.412;5.540;2023-03-22T03:14:22;10.13;;;6.30;;
24261;SDS011;12385;51.412;5.540;2023-03-22T03:17:22;10.45;;;6.00;;
24261;SDS011;12385;51.412;5.540;2023-03-22T03:31:07;10.35;;;5.25;;
24261;SDS011;12385;51.412;5.540;2023-03-22T03:33:34;10.32;;;5.30;;
24261;SDS011;12385;51.412;5.540;2023-03-22T03:36:04;12.00;;;5.00;;
24261;SDS011;12385;51.412;5.540;2023-03-22T03:38:36;11.35;;;5.03;;
24261;SDS011;12385;51.412;5.540;2023-03-22T03:41:08;12.07;;;4.90;;
24261;SDS011;12385;51.412;5.540;2023-03-22T03:43:37;10.48;;;4.78;;
24261;SDS011;12385;51.412;5.540;2023-03-22T03:46:05;12.43;;;5.03;;
24261;SDS011;12385;51.412;5.540;2023-03-22T03:48:33;10.27;;;4.80;;
24261;SDS011;12385;51.412;5.540;2023-03-22T03:51:01;10.95;;;4.25;;
24261;SDS011;12385;51.412;5.540;2023-03-22T03:53:27;7.13;;;4.35;;
24261;SDS011;12385;51.412;5.540;2023-03-22T03:55:53;9.38;;;4.22;;
24261;SDS011;12385;51.412;5.540;2023-03-22T03:58:19;9.25;;;4.28;;
24261;SDS011;12385;51.412;5.540;2023-03-22T04:00:45;9.15;;;4.55;;
24261;SDS011;12385;51.412;5.540;2023-03-22T04:03:14;10.25;;;4.28;;
24261;SDS011;12385;51.412;5.540;2023-03-22T04:05:40;8.57;;;4.28;;
24261;SDS011;12385;51.412;5.540;2023-03-22T04:08:06;9.18;;;4.25;;
24261;SDS011;12385;51.412;5.540;2023-03-22T04:10:32;7.22;;;3.90;;
24261;SDS011;12385;51.412;5.540;2023-03-22T04:12:57;11.38;;;4.03;;
24261;SDS011;12385;51.412;5.540;2023-03-22T04:15:23;9.98;;;4.25;;
24261;SDS011;12385;51.412;5.540;2023-03-22T04:17:49;11.38;;;4.03;;
24261;SDS011;12385;51.412;5.540;2023-03-22T04:20:15;11.20;;;4.10;;
24261;SDS011;12385;51.412;5.540;2023-03-22T04:22:41;9.77;;;3.92;;
24261;SDS011;12385;51.412;5.540;2023-03-22T04:25:10;11.10;;;4.35;;
24261;SDS011;12385;51.412;5.540;2023-03-22T04:27:38;10.05;;;4.13;;
24261;SDS011;12385;51.412;5.540;2023-03-22T04:30:05;7.65;;;4.20;;
24261;SDS011;12385;51.412;5.540;2023-03-22T04:32:35;13.63;;;4.15;;
24261;SDS011;12385;51.412;5.540;2023-03-22T04:35:02;9.73;;;4.00;;
24261;SDS011;12385;51.412;5.540;2023-03-22T04:37:27;6.40;;;3.78;;
24261;SDS011;12385;51.412;5.540;2023-03-22T04:39:55;11.15;;;3.55;;
24261;SDS011;12385;51.412;5.540;2023-03-22T04:42:21;11.45;;;3.97;;
24261;SDS011;12385;51.412;5.540;2023-03-22T04:44:47;10.77;;;4.15;;
24261;SDS011;12385;51.412;5.540;2023-03-22T04:47:13;11.77;;;3.95;;
24261;SDS011;12385;51.412;5.540;2023-03-22T04:49:38;9.27;;;3.60;;
24261;SDS011;12385;51.412;5.540;2023-03-22T04:52:04;12.77;;;3.83;;
24261;SDS011;12385;51.412;5.540;2023-03-22T04:54:30;9.30;;;3.53;;
24261;SDS011;12385;51.412;5.540;2023-03-22T04:56:57;14.40;;;3.80;;
24261;SDS011;12385;51.412;5.540;2023-03-22T04:59:23;11.00;;;3.35;;
24261;SDS011;12385;51.412;5.540;2023-03-22T05:01:49;9.40;;;3.40;;
24261;SDS011;12385;51.412;5.540;2023-03-22T05:04:16;10.70;;;2.88;;
24261;SDS011;12385;51.412;5.540;2023-03-22T05:06:42;12.25;;;3.78;;
24261;SDS011;12385;51.412;5.540;2023-03-22T05:09:08;11.77;;;3.40;;
24261;SDS011;12385;51.412;5.540;2023-03-22T05:11:35;7.97;;;2.72;;
24261;SDS011;12385;51.412;5.540;2023-03-22T05:14:01;11.00;;;3.47;;
24261;SDS011;12385;51.412;5.540;2023-03-22T05:16:26;12.18;;;3.33;;
24261;SDS011;12385;51.412;5.540;2023-03-22T05:18:52;10.32;;;3.20;;
24261;SDS011;12385;51.412;5.540;2023-03-22T05:21:19;8.68;;;2.70;;
24261;SDS011;12385;51.412;5.540;2023-03-22T05:23:52;9.98;;;3.15;;
24261;SDS011;12385;51.412;5.540;2023-03-22T05:26:23;10.68;;;2.78;;
24261;SDS011;12385;51.412;5.540;2023-03-22T05:28:50;10.90;;;3.35;;
24261;SDS011;12385;51.412;5.540;2023-03-22T05:31:17;11.45;;;3.00;;
24261;SDS011;12385;51.412;5.540;2023-03-22T05:33:45;7.15;;;2.85;;
24261;SDS011;12385;51.412;5.540;2023-03-22T05:36:15;9.18;;;3.13;;
24261;SDS011;12385;51.412;5.540;2023-03-22T05:38:42;10.95;;;2.95;;
24261;SDS011;12385;51.412;5.540;2023-03-22T05:41:09;13.75;;;3.20;;
24261;SDS011;12385;51.412;5.540;2023-03-22T05:43:35;10.45;;;3.17;;
24261;SDS011;12385;51.412;5.540;2023-03-22T05:46:05;8.88;;;2.88;;
24261;SDS011;12385;51.412;5.540;2023-03-22T05:48:31;9.95;;;3.10;;
24261;SDS011;12385;51.412;5.540;2023-03-22T05:50:58;8.02;;;2.63;;
24261;SDS011;12385;51.412;5.540;2023-03-22T05:53:24;9.77;;;2.88;;
24261;SDS011;12385;51.412;5.540;2023-03-22T05:55:50;9.90;;;2.85;;
24261;SDS011;12385;51.412;5.540;2023-03-22T05:58:17;12.68;;;3.60;;
24261;SDS011;12385;51.412;5.540;2023-03-22T06:00:42;9.68;;;3.22;;
24261;SDS011;12385;51.412;5.540;2023-03-22T06:03:13;7.22;;;3.13;;
24261;SDS011;12385;51.412;5.540;2023-03-22T06:05:39;10.65;;;3.40;;
24261;SDS011;12385;51.412;5.540;2023-03-22T06:08:06;11.77;;;3.65;;
24261;SDS011;12385;51.412;5.540;2023-03-22T06:10:31;11.38;;;3.50;;
24261;SDS011;12385;51.412;5.540;2023-03-22T06:12:57;11.65;;;3.25;;
24261;SDS011;12385;51.412;5.540;2023-03-22T06:15:37;11.02;;;4.07;;
24261;SDS011;12385;51.412;5.540;2023-03-22T06:18:02;9.82;;;3.55;;
24261;SDS011;12385;51.412;5.540;2023-03-22T06:20:28;11.20;;;3.65;;
24261;SDS011;12385;51.412;5.540;2023-03-22T06:22:54;9.80;;;2.90;;
24261;SDS011;12385;51.412;5.540;2023-03-22T06:25:20;11.65;;;3.38;;
24261;SDS011;12385;51.412;5.540;2023-03-22T06:27:46;8.27;;;3.50;;
24261;SDS011;12385;51.412;5.540;2023-03-22T06:30:19;9.82;;;3.25;;
24261;SDS011;12385;51.412;5.540;2023-03-22T06:32:45;12.15;;;3.83;;
24261;SDS011;12385;51.412;5.540;2023-03-22T06:35:11;11.93;;;3.55;;
24261;SDS011;12385;51.412;5.540;2023-03-22T06:37:36;11.38;;;3.58;;
24261;SDS011;12385;51.412;5.540;2023-03-22T06:40:02;12.15;;;3.15;;
24261;SDS011;12385;51.412;5.540;2023-03-22T06:42:28;9.60;;;3.50;;
24261;SDS011;12385;51.412;5.540;2023-03-22T06:44:55;11.32;;;3.85;;
24261;SDS011;12385;51.412;5.540;2023-03-22T06:47:21;10.07;;;3.22;;
24261;SDS011;12385;51.412;5.540;2023-03-22T06:49:47;15.25;;;3.80;;
24261;SDS011;12385;51.412;5.540;2023-03-22T06:52:15;10.73;;;3.55;;
24261;SDS011;12385;51.412;5.540;2023-03-22T06:54:40;12.55;;;3.75;;
24261;SDS011;12385;51.412;5.540;2023-03-22T06:57:08;11.32;;;3.85;;
24261;SDS011;12385;51.412;5.540;2023-03-22T06:59:33;11.75;;;3.50;;
24261;SDS011;12385;51.412;5.540;2023-03-22T07:01:59;10.07;;;3.35;;
24261;SDS011;12385;51.412;5.540;2023-03-22T07:04:25;13.02;;;3.55;;
24261;SDS011;12385;51.412;5.540;2023-03-22T07:06:51;14.13;;;2.97;;
24261;SDS011;12385;51.412;5.540;2023-03-22T07:09:17;11.90;;;3.58;;
24261;SDS011;12385;51.412;5.540;2023-03-22T07:11:43;11.63;;;3.63;;
24261;SDS011;12385;51.412;5.540;2023-03-22T07:14:09;10.75;;;3.35;;
24261;SDS011;12385;51.412;5.540;2023-03-22T07:16:34;11.70;;;3.38;;
24261;SDS011;12385;51.412;5.540;2023-03-22T07:19:00;7.03;;;2.83;;
24261;SDS011;12385;51.412;5.540;2023-03-22T07:21:26;9.52;;;3.30;;
24261;SDS011;12385;51.412;5.540;2023-03-22T07:23:51;12.93;;;3.30;;
24261;SDS011;12385;51.412;5.540;2023-03-22T07:26:23;11.25;;;3.50;;
24261;SDS011;12385;51.412;5.540;2023-03-22T07:28:50;11.93;;;3.55;;
24261;SDS011;12385;51.412;5.540;2023-03-22T07:31:16;14.25;;;3.50;;
24261;SDS011;12385;51.412;5.540;2023-03-22T07:33:42;16.20;;;3.92;;
24261;SDS011;12385;51.412;5.540;2023-03-22T07:36:07;17.77;;;3.45;;
24261;SDS011;12385;51.412;5.540;2023-03-22T07:38:35;10.60;;;3.30;;
24261;SDS011;12385;51.412;5.540;2023-03-22T07:41:01;12.60;;;3.50;;
24261;SDS011;12385;51.412;5.540;2023-03-22T07:43:26;10.82;;;2.75;;
24261;SDS011;12385;51.412;5.540;2023-03-22T07:45:52;11.55;;;3.70;;
24261;SDS011;12385;51.412;5.540;2023-03-22T07:48:18;12.45;;;2.92;;
24261;SDS011;12385;51.412;5.540;2023-03-22T07:50:48;8.25;;;2.80;;
24261;SDS011;12385;51.412;5.540;2023-03-22T07:53:14;11.80;;;2.73;;
24261;SDS011;12385;51.412;5.540;2023-03-22T07:55:39;11.80;;;2.90;;
24261;SDS011;12385;51.412;5.540;2023-03-22T07:58:08;12.02;;;2.72;;
24261;SDS011;12385;51.412;5.540;2023-03-22T08:00:35;14.45;;;2.65;;
24261;SDS011;12385;51.412;5.540;2023-03-22T08:03:01;10.50;;;2.33;;
24261;SDS011;12385;51.412;5.540;2023-03-22T08:05:26;14.38;;;2.92;;
24261;SDS011;12385;51.412;5.540;2023-03-22T08:07:55;15.43;;;2.60;;
24261;SDS011;12385;51.412;5.540;2023-03-22T08:10:20;10.57;;;2.85;;
24261;SDS011;12385;51.412;5.540;2023-03-22T08:12:52;12.05;;;2.85;;
24261;SDS011;12385;51.412;5.540;2023-03-22T08:15:18;10.32;;;2.63;;
24261;SDS011;12385;51.412;5.540;2023-03-22T08:17:43;9.32;;;2.70;;
24261;SDS011;12385;51.412;5.540;2023-03-22T08:20:11;10.77;;;2.50;;
24261;SDS011;12385;51.412;5.540;2023-03-22T08:22:37;7.93;;;2.78;;
24261;SDS011;12385;51.412;5.540;2023-03-22T08:25:03;13.13;;;2.65;;
24261;SDS011;12385;51.412;5.540;2023-03-22T08:27:29;11.70;;;2.20;;
24261;SDS011;12385;51.412;5.540;2023-03-22T08:29:55;11.18;;;2.55;;
24261;SDS011;12385;51.412;5.540;2023-03-22T08:32:22;7.35;;;2.30;;
24261;SDS011;12385;51.412;5.540;2023-03-22T08:34:48;10.65;;;2.28;;
24261;SDS011;12385;51.412;5.540;2023-03-22T08:37:13;8.50;;;2.30;;
24261;SDS011;12385;51.412;5.540;2023-03-22T08:39:40;12.80;;;2.50;;
24261;SDS011;12385;51.412;5.540;2023-03-22T08:42:11;12.25;;;2.28;;
24261;SDS011;12385;51.412;5.540;2023-03-22T08:44:37;11.57;;;2.47;;
24261;SDS011;12385;51.412;5.540;2023-03-22T08:47:02;12.88;;;2.33;;
24261;SDS011;12385;51.412;5.540;2023-03-22T08:49:28;19.05;;;2.40;;
24261;SDS011;12385;51.412;5.540;2023-03-22T08:51:55;13.95;;;2.33;;
24261;SDS011;12385;51.412;5.540;2023-03-22T08:54:21;9.63;;;2.13;;
24261;SDS011;12385;51.412;5.540;2023-03-22T08:56:48;10.10;;;2.10;;
24261;SDS011;12385;51.412;5.540;2023-03-22T08:59:14;10.18;;;2.30;;
24261;SDS011;12385;51.412;5.540;2023-03-22T09:01:40;9.52;;;2.25;;
24261;SDS011;12385;51.412;5.540;2023-03-22T09:04:06;8.45;;;2.38;;
24261;SDS011;12385;51.412;5.540;2023-03-22T09:06:32;9.65;;;2.00;;
24261;SDS011;12385;51.412;5.540;2023-03-22T09:08:58;10.50;;;2.15;;
24261;SDS011;12385;51.412;5.540;2023-03-22T09:11:23;10.07;;;2.45;;
24261;SDS011;12385;51.412;5.540;2023-03-22T09:13:49;8.45;;;2.00;;
24261;SDS011;12385;51.412;5.540;2023-03-22T09:16:15;11.35;;;2.10;;
24261;SDS011;12385;51.412;5.540;2023-03-22T09:18:43;9.05;;;2.10;;
24261;SDS011;12385;51.412;5.540;2023-03-22T09:21:09;11.02;;;1.92;;
24261;SDS011;12385;51.412;5.540;2023-03-22T09:23:35;10.30;;;2.28;;
24261;SDS011;12385;51.412;5.540;2023-03-22T09:26:03;8.88;;;2.53;;
24261;SDS011;12385;51.412;5.540;2023-03-22T09:28:31;9.10;;;2.00;;
24261;SDS011;12385;51.412;5.540;2023-03-22T09:31:04;16.30;;;2.88;;
24261;SDS011;12385;51.412;5.540;2023-03-22T09:33:32;8.23;;;1.65;;
24261;SDS011;12385;51.412;5.540;2023-03-22T09:36:05;9.77;;;1.75;;
24261;SDS011;12385;51.412;5.540;2023-03-22T09:38:31;9.02;;;1.70;;
24261;SDS011;12385;51.412;5.540;2023-03-22T09:41:00;5.70;;;2.17;;
24261;SDS011;12385;51.412;5.540;2023-03-22T09:43:33;7.60;;;1.90;;
24261;SDS011;12385;51.412;5.540;2023-03-22T09:46:02;9.55;;;2.00;;
24261;SDS011;12385;51.412;5.540;2023-03-22T09:48:33;8.75;;;1.83;;
24261;SDS011;12385;51.412;5.540;2023-03-22T09:53:29;10.20;;;1.98;;
24261;SDS011;12385;51.412;5.540;2023-03-22T10:00:55;14.83;;;2.10;;
24261;SDS011;12385;51.412;5.540;2023-03-22T10:11:42;11.15;;;1.65;;
24261;SDS011;12385;51.412;5.540;2023-03-22T10:17:05;9.77;;;1.88;;
24261;SDS011;12385;51.412;5.540;2023-03-22T10:19:51;8.10;;;1.60;;
24261;SDS011;12385;51.412;5.540;2023-03-22T10:22:40;11.27;;;2.15;;
24261;SDS011;12385;51.412;5.540;2023-03-22T10:25:11;9.52;;;2.00;;
24261;SDS011;12385;51.412;5.540;2023-03-22T10:27:45;10.50;;;2.40;;
24261;SDS011;12385;51.412;5.540;2023-03-22T10:35:16;10.77;;;1.60;;
24261;SDS011;12385;51.412;5.540;2023-03-22T10:37:42;9.27;;;1.75;;
24261;SDS011;12385;51.412;5.540;2023-03-22T10:40:19;11.20;;;2.10;;
24261;SDS011;12385;51.412;5.540;2023-03-22T10:42:50;8.90;;;1.80;;
24261;SDS011;12385;51.412;5.540;2023-03-22T10:45:19;11.40;;;1.92;;
24261;SDS011;12385;51.412;5.540;2023-03-22T10:47:52;11.38;;;1.90;;
24261;SDS011;12385;51.412;5.540;2023-03-22T10:50:31;12.48;;;2.15;;
24261;SDS011;12385;51.412;5.540;2023-03-22T10:58:19;10.88;;;2.08;;
24261;SDS011;12385;51.412;5.540;2023-03-22T11:06:05;7.95;;;1.63;;
24261;SDS011;12385;51.412;5.540;2023-03-22T11:08:48;8.27;;;2.17;;
24261;SDS011;12385;51.412;5.540;2023-03-22T11:13:48;13.45;;;2.13;;
24261;SDS011;12385;51.412;5.540;2023-03-22T11:16:15;11.77;;;2.30;;
24261;SDS011;12385;51.412;5.540;2023-03-22T11:18:42;10.43;;;2.30;;
24261;SDS011;12385;51.412;5.540;2023-03-22T11:21:09;12.38;;;2.50;;
24261;SDS011;12385;51.412;5.540;2023-03-22T11:23:36;12.48;;;2.80;;
24261;SDS011;12385;51.412;5.540;2023-03-22T11:26:10;9.23;;;2.03;;
24261;SDS011;12385;51.412;5.540;2023-03-22T11:28:47;12.85;;;2.55;;
24261;SDS011;12385;51.412;5.540;2023-03-22T11:31:18;10.20;;;2.17;;
24261;SDS011;12385;51.412;5.540;2023-03-22T11:33:55;9.18;;;1.98;;
24261;SDS011;12385;51.412;5.540;2023-03-22T11:36:22;10.90;;;2.53;;
24261;SDS011;12385;51.412;5.540;2023-03-22T11:38:55;11.48;;;2.50;;
24261;SDS011;12385;51.412;5.540;2023-03-22T11:41:25;10.35;;;2.55;;
24261;SDS011;12385;51.412;5.540;2023-03-22T11:43:57;14.45;;;2.38;;
24261;SDS011;12385;51.412;5.540;2023-03-22T11:46:26;8.48;;;1.80;;
24261;SDS011;12385;51.412;5.540;2023-03-22T11:48:57;5.88;;;1.98;;
24261;SDS011;12385;51.412;5.540;2023-03-22T11:51:28;9.50;;;2.17;;
24261;SDS011;12385;51.412;5.540;2023-03-22T11:56:41;8.00;;;2.00;;
24261;SDS011;12385;51.412;5.540;2023-03-22T11:59:14;10.48;;;1.73;;
24261;SDS011;12385;51.412;5.540;2023-03-22T12:01:49;6.60;;;1.58;;
24261;SDS011;12385;51.412;5.540;2023-03-22T12:04:24;7.50;;;1.60;;
24261;SDS011;12385;51.412;5.540;2023-03-22T12:06:54;7.65;;;1.65;;
24261;SDS011;12385;51.412;5.540;2023-03-22T12:09:34;7.55;;;1.33;;
24261;SDS011;12385;51.412;5.540;2023-03-22T12:12:23;8.20;;;1.40;;
24261;SDS011;12385;51.412;5.540;2023-03-22T12:15:05;7.85;;;1.73;;
24261;SDS011;12385;51.412;5.540;2023-03-22T12:17:59;6.72;;;1.55;;
24261;SDS011;12385;51.412;5.540;2023-03-22T12:20:41;7.57;;;1.40;;
24261;SDS011;12385;51.412;5.540;2023-03-22T12:23:22;7.07;;;1.55;;
24261;SDS011;12385;51.412;5.540;2023-03-22T12:25:50;7.10;;;1.70;;
24261;SDS011;12385;51.412;5.540;2023-03-22T12:28:40;6.72;;;1.50;;
24261;SDS011;12385;51.412;5.540;2023-03-22T12:31:24;6.78;;;1.67;;
24261;SDS011;12385;51.412;5.540;2023-03-22T12:33:55;6.97;;;1.58;;
24261;SDS011;12385;51.412;5.540;2023-03-22T12:36:26;7.68;;;1.77;;
24261;SDS011;12385;51.412;5.540;2023-03-22T12:39:01;5.80;;;1.50;;
24261;SDS011;12385;51.412;5.540;2023-03-22T12:41:31;6.90;;;1.63;;
24261;SDS011;12385;51.412;5.540;2023-03-22T12:44:02;8.13;;;1.60;;
24261;SDS011;12385;51.412;5.540;2023-03-22T12:46:44;8.10;;;1.80;;
24261;SDS011;12385;51.412;5.540;2023-03-22T12:51:54;9.95;;;1.83;;
24261;SDS011;12385;51.412;5.540;2023-03-22T12:54:29;6.85;;;1.60;;
24261;SDS011;12385;51.412;5.540;2023-03-22T12:56:55;7.53;;;1.55;;
24261;SDS011;12385;51.412;5.540;2023-03-22T12:59:22;6.68;;;1.65;;
24261;SDS011;12385;51.412;5.540;2023-03-22T13:01:57;5.18;;;1.38;;
24261;SDS011;12385;51.412;5.540;2023-03-22T13:04:50;6.13;;;1.45;;
24261;SDS011;12385;51.412;5.540;2023-03-22T13:09:55;8.70;;;1.40;;
24261;SDS011;12385;51.412;5.540;2023-03-22T13:12:26;5.88;;;1.60;;
24261;SDS011;12385;51.412;5.540;2023-03-22T13:14:55;11.48;;;1.73;;
24261;SDS011;12385;51.412;5.540;2023-03-22T13:23:02;9.02;;;1.85;;
24261;SDS011;12385;51.412;5.540;2023-03-22T13:25:30;5.32;;;1.65;;
24261;SDS011;12385;51.412;5.540;2023-03-22T13:28:21;8.07;;;1.83;;
24261;SDS011;12385;51.412;5.540;2023-03-22T13:30:51;7.13;;;1.98;;
24261;SDS011;12385;51.412;5.540;2023-03-22T13:33:28;8.80;;;1.80;;
24261;SDS011;12385;51.412;5.540;2023-03-22T13:35:57;6.53;;;1.70;;
24261;SDS011;12385;51.412;5.540;2023-03-22T13:46:09;8.05;;;1.88;;
24261;SDS011;12385;51.412;5.540;2023-03-22T13:59:07;6.30;;;1.90;;
24261;SDS011;12385;51.412;5.540;2023-03-22T14:01:41;6.60;;;1.65;;
24261;SDS011;12385;51.412;5.540;2023-03-22T14:04:12;8.35;;;2.30;;
24261;SDS011;12385;51.412;5.540;2023-03-22T14:07:22;6.22;;;1.83;;
24261;SDS011;12385;51.412;5.540;2023-03-22T14:09:59;7.82;;;1.73;;
24261;SDS011;12385;51.412;5.540;2023-03-22T14:12:44;8.35;;;2.00;;
24261;SDS011;12385;51.412;5.540;2023-03-22T14:15:39;8.25;;;2.17;;
24261;SDS011;12385;51.412;5.540;2023-03-22T14:18:28;7.50;;;2.08;;
24261;SDS011;12385;51.412;5.540;2023-03-22T14:20:59;6.68;;;2.10;;
24261;SDS011;12385;51.412;5.540;2023-03-22T14:23:30;8.70;;;2.20;;
24261;SDS011;12385;51.412;5.540;2023-03-22T14:26:16;6.72;;;2.20;;
24261;SDS011;12385;51.412;5.540;2023-03-22T14:28:45;6.80;;;2.15;;
24261;SDS011;12385;51.412;5.540;2023-03-22T14:31:26;6.75;;;2.42;;
24261;SDS011;12385;51.412;5.540;2023-03-22T14:33:53;8.27;;;2.30;;
24261;SDS011;12385;51.412;5.540;2023-03-22T14:36:24;5.30;;;2.33;;
24261;SDS011;12385;51.412;5.540;2023-03-22T14:38:53;6.68;;;2.50;;
24261;SDS011;12385;51.412;5.540;2023-03-22T14:41:21;7.10;;;2.33;;
24261;SDS011;12385;51.412;5.540;2023-03-22T14:43:49;9.50;;;2.53;;
24261;SDS011;12385;51.412;5.540;2023-03-22T14:46:30;8.30;;;2.78;;
24261;SDS011;12385;51.412;5.540;2023-03-22T14:48:59;8.57;;;2.50;;
24261;SDS011;12385;51.412;5.540;2023-03-22T14:51:30;7.75;;;2.75;;
24261;SDS011;12385;51.412;5.540;2023-03-22T14:54:05;10.52;;;2.40;;
24261;SDS011;12385;51.412;5.540;2023-03-22T14:56:39;7.28;;;2.55;;
24261;SDS011;12385;51.412;5.540;2023-03-22T14:59:07;10.07;;;2.63;;
24261;SDS011;12385;51.412;5.540;2023-03-22T15:01:42;11.15;;;2.67;;
24261;SDS011;12385;51.412;5.540;2023-03-22T15:04:13;8.35;;;2.70;;
24261;SDS011;12385;51.412;5.540;2023-03-22T15:06:41;9.80;;;2.55;;
24261;SDS011;12385;51.412;5.540;2023-03-22T15:09:09;5.68;;;1.98;;
24261;SDS011;12385;51.412;5.540;2023-03-22T15:11:36;12.07;;;2.60;;
24261;SDS011;12385;51.412;5.540;2023-03-22T15:14:04;8.35;;;2.30;;
24261;SDS011;12385;51.412;5.540;2023-03-22T15:16:34;8.52;;;2.30;;
24261;SDS011;12385;51.412;5.540;2023-03-22T15:19:02;7.78;;;2.25;;
24261;SDS011;12385;51.412;5.540;2023-03-22T15:21:30;7.80;;;2.40;;
24261;SDS011;12385;51.412;5.540;2023-03-22T15:24:13;8.45;;;2.42;;
24261;SDS011;12385;51.412;5.540;2023-03-22T15:27:10;7.75;;;2.30;;
24261;SDS011;12385;51.412;5.540;2023-03-22T15:29:39;8.57;;;2.28;;
24261;SDS011;12385;51.412;5.540;2023-03-22T15:32:08;7.32;;;2.28;;
24261;SDS011;12385;51.412;5.540;2023-03-22T15:34:40;8.20;;;2.28;;
24261;SDS011;12385;51.412;5.540;2023-03-22T15:37:11;8.25;;;2.30;;
24261;SDS011;12385;51.412;5.540;2023-03-22T15:39:43;8.43;;;2.53;;
24261;SDS011;12385;51.412;5.540;2023-03-22T15:42:14;8.80;;;2.10;;
24261;SDS011;12385;51.412;5.540;2023-03-22T15:47:41;7.18;;;2.03;;
24261;SDS011;12385;51.412;5.540;2023-03-22T15:50:09;7.35;;;2.60;;
24261;SDS011;12385;51.412;5.540;2023-03-22T15:52:35;9.93;;;2.50;;
24261;SDS011;12385;51.412;5.540;2023-03-22T15:55:12;7.85;;;2.42;;
24261;SDS011;12385;51.412;5.540;2023-03-22T15:57:48;10.95;;;2.53;;
24261;SDS011;12385;51.412;5.540;2023-03-22T16:00:31;8.35;;;2.90;;
24261;SDS011;12385;51.412;5.540;2023-03-22T16:05:34;7.63;;;2.65;;
24261;SDS011;12385;51.412;5.540;2023-03-22T16:08:02;6.43;;;2.47;;
24261;SDS011;12385;51.412;5.540;2023-03-22T16:10:30;10.80;;;2.70;;
24261;SDS011;12385;51.412;5.540;2023-03-22T16:12:57;8.35;;;2.35;;
24261;SDS011;12385;51.412;5.540;2023-03-22T16:15:24;8.85;;;3.03;;
24261;SDS011;12385;51.412;5.540;2023-03-22T16:17:57;7.78;;;3.00;;
24261;SDS011;12385;51.412;5.540;2023-03-22T16:20:23;12.88;;;3.15;;
24261;SDS011;12385;51.412;5.540;2023-03-22T16:22:56;11.00;;;3.03;;
24261;SDS011;12385;51.412;5.540;2023-03-22T16:25:23;10.70;;;3.17;;
24261;SDS011;12385;51.412;5.540;2023-03-22T16:27:53;11.93;;;3.08;;
24261;SDS011;12385;51.412;5.540;2023-03-22T16:30:20;6.93;;;3.33;;
24261;SDS011;12385;51.412;5.540;2023-03-22T16:32:46;10.63;;;3.42;;
24261;SDS011;12385;51.412;5.540;2023-03-22T16:35:15;10.77;;;3.42;;
24261;SDS011;12385;51.412;5.540;2023-03-22T16:37:45;12.18;;;3.38;;
24261;SDS011;12385;51.412;5.540;2023-03-22T16:40:15;12.05;;;3.72;;
24261;SDS011;12385;51.412;5.540;2023-03-22T16:42:42;7.95;;;3.47;;
24261;SDS011;12385;51.412;5.540;2023-03-22T16:45:21;11.10;;;3.47;;
24261;SDS011;12385;51.412;5.540;2023-03-22T16:47:52;10.27;;;3.80;;